sensor_id;sensor_type;location;lat;lon;timestamp;temperature;humidity
24522;DHT22;12680;57.804;12.190;2024-03-25T00:00:28;5.40;99.90
24522;DHT22;12680;57.804;12.190;2024-03-25T00:02:59;5.40;99.90
24522;DHT22;12680;57.804;12.190;2024-03-25T00:05:25;5.30;99.90
24522;DHT22;12680;57.804;12.190;2024-03-25T00:07:58;5.30;99.90
24522;DHT22;12680;57.804;12.190;2024-03-25T00:10:24;5.20;99.90
24522;DHT22;12680;57.804;12.190;2024-03-25T00:12:50;5.30;99.90
24522;DHT22;12680;57.804;12.190;2024-03-25T00:15:27;5.30;99.90
24522;DHT22;12680;57.804;12.190;2024-03-25T00:17:52;5.30;99.90
24522;DHT22;12680;57.804;12.190;2024-03-25T00:20:24;5.30;99.90
24522;DHT22;12680;57.804;12.190;2024-03-25T00:22:50;5.30;99.90
24522;DHT22;12680;57.804;12.190;2024-03-25T00:25:22;5.30;99.90
24522;DHT22;12680;57.804;12.190;2024-03-25T00:27:48;5.30;99.90
24522;DHT22;12680;57.804;12.190;2024-03-25T00:30:27;5.30;99.90
24522;DHT22;12680;57.804;12.190;2024-03-25T00:33:06;5.20;99.90
24522;DHT22;12680;57.804;12.190;2024-03-25T00:35:39;5.20;99.90
24522;DHT22;12680;57.804;12.190;2024-03-25T00:38:04;5.20;99.90
24522;DHT22;12680;57.804;12.190;2024-03-25T00:40:31;5.30;99.90
24522;DHT22;12680;57.804;12.190;2024-03-25T00:43:03;5.30;99.90
24522;DHT22;12680;57.804;12.190;2024-03-25T00:45:29;5.30;99.90
24522;DHT22;12680;57.804;12.190;2024-03-25T00:47:59;5.30;99.90
24522;DHT22;12680;57.804;12.190;2024-03-25T00:50:31;5.30;99.90
24522;DHT22;12680;57.804;12.190;2024-03-25T00:52:57;5.30;99.90
24522;DHT22;12680;57.804;12.190;2024-03-25T00:55:23;5.30;99.90
24522;DHT22;12680;57.804;12.190;2024-03-25T00:57:57;5.30;99.90
24522;DHT22;12680;57.804;12.190;2024-03-25T01:00:22;5.30;99.90
24522;DHT22;12680;57.804;12.190;2024-03-25T01:02:48;5.20;99.90
24522;DHT22;12680;57.804;12.190;2024-03-25T01:05:21;5.20;99.90
24522;DHT22;12680;57.804;12.190;2024-03-25T01:07:46;5.20;99.90
24522;DHT22;12680;57.804;12.190;2024-03-25T01:10:12;5.20;99.90
24522;DHT22;12680;57.804;12.190;2024-03-25T01:12:45;5.20;99.90
24522;DHT22;12680;57.804;12.190;2024-03-25T01:15:11;5.20;99.90
24522;DHT22;12680;57.804;12.190;2024-03-25T01:17:43;5.30;99.90
24522;DHT22;12680;57.804;12.190;2024-03-25T01:20:10;5.30;99.90
24522;DHT22;12680;57.804;12.190;2024-03-25T01:22:43;5.30;99.90
24522;DHT22;12680;57.804;12.190;2024-03-25T01:25:08;6.10;99.90
24522;DHT22;12680;57.804;12.190;2024-03-25T01:27:34;5.40;99.90
24522;DHT22;12680;57.804;12.190;2024-03-25T01:33:02;5.30;99.90
24522;DHT22;12680;57.804;12.190;2024-03-25T01:35:41;5.40;99.90
24522;DHT22;12680;57.804;12.190;2024-03-25T01:38:07;5.40;99.90
24522;DHT22;12680;57.804;12.190;2024-03-25T01:40:33;5.40;99.90
24522;DHT22;12680;57.804;12.190;2024-03-25T01:43:06;5.40;99.90
24522;DHT22;12680;57.804;12.190;2024-03-25T01:45:38;5.40;99.90
24522;DHT22;12680;57.804;12.190;2024-03-25T01:48:08;5.40;99.90
24522;DHT22;12680;57.804;12.190;2024-03-25T01:50:43;5.40;99.90
24522;DHT22;12680;57.804;12.190;2024-03-25T01:53:11;5.50;99.90
24522;DHT22;12680;57.804;12.190;2024-03-25T01:55:38;5.40;99.90
24522;DHT22;12680;57.804;12.190;2024-03-25T01:58:11;5.40;99.90
24522;DHT22;12680;57.804;12.190;2024-03-25T02:00:37;5.40;99.90
24522;DHT22;12680;57.804;12.190;2024-03-25T02:03:10;5.30;99.90
24522;DHT22;12680;57.804;12.190;2024-03-25T02:05:37;5.30;99.90
24522;DHT22;12680;57.804;12.190;2024-03-25T02:08:03;5.30;99.90
24522;DHT22;12680;57.804;12.190;2024-03-25T02:10:37;5.40;99.90
24522;DHT22;12680;57.804;12.190;2024-03-25T02:13:03;8.30;99.90
24522;DHT22;12680;57.804;12.190;2024-03-25T02:15:36;5.40;99.90
24522;DHT22;12680;57.804;12.190;2024-03-25T02:18:01;5.30;99.90
24522;DHT22;12680;57.804;12.190;2024-03-25T02:20:34;5.40;99.90
24522;DHT22;12680;57.804;12.190;2024-03-25T02:22:59;5.40;99.90
24522;DHT22;12680;57.804;12.190;2024-03-25T02:25:33;5.40;99.90
24522;DHT22;12680;57.804;12.190;2024-03-25T02:27:59;5.40;99.90
24522;DHT22;12680;57.804;12.190;2024-03-25T02:30:25;5.40;99.90
24522;DHT22;12680;57.804;12.190;2024-03-25T02:33:04;5.40;99.90
24522;DHT22;12680;57.804;12.190;2024-03-25T02:35:30;5.40;99.90
24522;DHT22;12680;57.804;12.190;2024-03-25T02:38:03;5.50;99.90
24522;DHT22;12680;57.804;12.190;2024-03-25T02:40:29;5.50;99.90
24522;DHT22;12680;57.804;12.190;2024-03-25T02:43:02;5.50;99.90
24522;DHT22;12680;57.804;12.190;2024-03-25T02:45:28;5.40;99.90
24522;DHT22;12680;57.804;12.190;2024-03-25T02:48:01;5.40;99.90
24522;DHT22;12680;57.804;12.190;2024-03-25T02:50:27;5.50;99.90
24522;DHT22;12680;57.804;12.190;2024-03-25T02:52:53;5.60;99.90
24522;DHT22;12680;57.804;12.190;2024-03-25T02:55:25;5.60;99.90
24522;DHT22;12680;57.804;12.190;2024-03-25T02:57:50;5.60;99.90
24522;DHT22;12680;57.804;12.190;2024-03-25T03:00:16;5.60;99.90
24522;DHT22;12680;57.804;12.190;2024-03-25T03:02:49;5.70;99.90
24522;DHT22;12680;57.804;12.190;2024-03-25T03:05:15;5.80;99.90
24522;DHT22;12680;57.804;12.190;2024-03-25T03:07:48;5.70;99.90
24522;DHT22;12680;57.804;12.190;2024-03-25T03:10:13;5.70;99.90
24522;DHT22;12680;57.804;12.190;2024-03-25T03:12:41;5.60;99.90
24522;DHT22;12680;57.804;12.190;2024-03-25T03:15:14;5.50;99.90
24522;DHT22;12680;57.804;12.190;2024-03-25T03:17:40;5.50;99.90
24522;DHT22;12680;57.804;12.190;2024-03-25T03:20:13;5.50;99.90
24522;DHT22;12680;57.804;12.190;2024-03-25T03:22:45;5.40;99.90
24522;DHT22;12680;57.804;12.190;2024-03-25T03:25:11;5.40;99.90
24522;DHT22;12680;57.804;12.190;2024-03-25T03:27:44;5.40;99.90
24522;DHT22;12680;57.804;12.190;2024-03-25T03:30:16;5.40;99.90
24522;DHT22;12680;57.804;12.190;2024-03-25T03:32:42;5.40;99.90
24522;DHT22;12680;57.804;12.190;2024-03-25T03:35:14;5.30;99.90
24522;DHT22;12680;57.804;12.190;2024-03-25T03:37:40;5.20;99.90
24522;DHT22;12680;57.804;12.190;2024-03-25T03:42:46;5.20;99.90
24522;DHT22;12680;57.804;12.190;2024-03-25T03:45:11;5.10;99.90
24522;DHT22;12680;57.804;12.190;2024-03-25T03:47:44;5.00;99.90
24522;DHT22;12680;57.804;12.190;2024-03-25T03:50:10;5.00;99.90
24522;DHT22;12680;57.804;12.190;2024-03-25T03:52:35;5.00;99.90
24522;DHT22;12680;57.804;12.190;2024-03-25T03:55:08;5.00;99.90
24522;DHT22;12680;57.804;12.190;2024-03-25T03:57:34;4.90;99.90
24522;DHT22;12680;57.804;12.190;2024-03-25T04:00:00;4.90;99.90
24522;DHT22;12680;57.804;12.190;2024-03-25T04:02:33;4.90;99.90
24522;DHT22;12680;57.804;12.190;2024-03-25T04:05:05;4.90;99.90
24522;DHT22;12680;57.804;12.190;2024-03-25T04:07:32;4.80;99.90
24522;DHT22;12680;57.804;12.190;2024-03-25T04:09:58;7.10;99.90
24522;DHT22;12680;57.804;12.190;2024-03-25T04:12:32;4.80;99.90
24522;DHT22;12680;57.804;12.190;2024-03-25T04:14:58;4.80;99.90
24522;DHT22;12680;57.804;12.190;2024-03-25T04:17:24;4.90;99.90
24522;DHT22;12680;57.804;12.190;2024-03-25T04:19:58;4.90;99.90
24522;DHT22;12680;57.804;12.190;2024-03-25T04:22:32;6.90;99.90
24522;DHT22;12680;57.804;12.190;2024-03-25T04:25:05;5.20;99.90
24522;DHT22;12680;57.804;12.190;2024-03-25T04:27:38;4.80;99.90
24522;DHT22;12680;57.804;12.190;2024-03-25T04:30:11;4.80;99.90
24522;DHT22;12680;57.804;12.190;2024-03-25T04:32:38;4.70;99.90
24522;DHT22;12680;57.804;12.190;2024-03-25T04:35:12;4.70;99.90
24522;DHT22;12680;57.804;12.190;2024-03-25T04:37:38;4.80;99.90
24522;DHT22;12680;57.804;12.190;2024-03-25T04:40:11;4.70;99.90
24522;DHT22;12680;57.804;12.190;2024-03-25T04:42:40;4.70;99.90
24522;DHT22;12680;57.804;12.190;2024-03-25T04:45:06;4.80;99.90
24522;DHT22;12680;57.804;12.190;2024-03-25T04:47:39;4.80;99.90
24522;DHT22;12680;57.804;12.190;2024-03-25T04:50:06;4.90;99.90
24522;DHT22;12680;57.804;12.190;2024-03-25T04:52:31;4.80;99.90
24522;DHT22;12680;57.804;12.190;2024-03-25T04:55:04;4.80;99.90
24522;DHT22;12680;57.804;12.190;2024-03-25T04:57:30;4.80;99.90
24522;DHT22;12680;57.804;12.190;2024-03-25T05:00:03;4.80;99.90
24522;DHT22;12680;57.804;12.190;2024-03-25T05:02:37;4.80;99.90
24522;DHT22;12680;57.804;12.190;2024-03-25T05:05:09;4.70;99.90
24522;DHT22;12680;57.804;12.190;2024-03-25T05:07:35;4.70;99.90
24522;DHT22;12680;57.804;12.190;2024-03-25T05:10:08;4.70;99.90
24522;DHT22;12680;57.804;12.190;2024-03-25T05:12:34;4.70;99.90
24522;DHT22;12680;57.804;12.190;2024-03-25T05:15:00;4.70;99.90
24522;DHT22;12680;57.804;12.190;2024-03-25T05:17:32;4.70;99.90
24522;DHT22;12680;57.804;12.190;2024-03-25T05:19:58;4.70;99.90
24522;DHT22;12680;57.804;12.190;2024-03-25T05:22:30;4.70;99.90
24522;DHT22;12680;57.804;12.190;2024-03-25T05:24:56;4.70;99.90
24522;DHT22;12680;57.804;12.190;2024-03-25T05:27:28;5.40;99.90
24522;DHT22;12680;57.804;12.190;2024-03-25T05:29:54;4.60;99.90
24522;DHT22;12680;57.804;12.190;2024-03-25T05:32:19;4.70;99.90
24522;DHT22;12680;57.804;12.190;2024-03-25T05:34:54;6.30;99.90
24522;DHT22;12680;57.804;12.190;2024-03-25T05:37:20;4.80;99.90
24522;DHT22;12680;57.804;12.190;2024-03-25T05:39:52;4.90;99.90
24522;DHT22;12680;57.804;12.190;2024-03-25T05:42:24;4.90;99.90
24522;DHT22;12680;57.804;12.190;2024-03-25T05:44:50;4.90;99.90
24522;DHT22;12680;57.804;12.190;2024-03-25T05:47:22;4.90;99.90
24522;DHT22;12680;57.804;12.190;2024-03-25T05:49:48;4.90;99.90
24522;DHT22;12680;57.804;12.190;2024-03-25T05:52:14;5.00;99.90
24522;DHT22;12680;57.804;12.190;2024-03-25T05:54:46;5.00;99.90
24522;DHT22;12680;57.804;12.190;2024-03-25T05:57:12;4.90;99.90
24522;DHT22;12680;57.804;12.190;2024-03-25T05:59:38;4.90;99.90
24522;DHT22;12680;57.804;12.190;2024-03-25T06:02:10;4.80;99.90
24522;DHT22;12680;57.804;12.190;2024-03-25T06:04:42;4.90;99.90
24522;DHT22;12680;57.804;12.190;2024-03-25T06:07:08;4.90;99.90
24522;DHT22;12680;57.804;12.190;2024-03-25T06:09:34;4.90;99.90
24522;DHT22;12680;57.804;12.190;2024-03-25T06:12:06;4.90;99.90
24522;DHT22;12680;57.804;12.190;2024-03-25T06:14:39;5.00;99.90
24522;DHT22;12680;57.804;12.190;2024-03-25T06:17:05;5.00;99.90
24522;DHT22;12680;57.804;12.190;2024-03-25T06:19:37;6.20;99.90
24522;DHT22;12680;57.804;12.190;2024-03-25T06:22:04;5.10;99.90
24522;DHT22;12680;57.804;12.190;2024-03-25T06:24:36;5.10;99.90
24522;DHT22;12680;57.804;12.190;2024-03-25T06:27:02;5.00;99.90
24522;DHT22;12680;57.804;12.190;2024-03-25T06:29:34;5.00;99.90
24522;DHT22;12680;57.804;12.190;2024-03-25T06:32:01;5.00;99.90
24522;DHT22;12680;57.804;12.190;2024-03-25T06:35:01;5.00;99.90
24522;DHT22;12680;57.804;12.190;2024-03-25T06:37:34;5.00;99.90
24522;DHT22;12680;57.804;12.190;2024-03-25T06:40:00;5.00;99.90
24522;DHT22;12680;57.804;12.190;2024-03-25T06:42:32;5.00;99.90
24522;DHT22;12680;57.804;12.190;2024-03-25T06:44:58;5.00;99.90
24522;DHT22;12680;57.804;12.190;2024-03-25T06:47:30;5.00;99.90
24522;DHT22;12680;57.804;12.190;2024-03-25T06:49:56;5.00;99.90
24522;DHT22;12680;57.804;12.190;2024-03-25T06:52:28;5.00;99.90
24522;DHT22;12680;57.804;12.190;2024-03-25T06:54:54;5.00;99.90
24522;DHT22;12680;57.804;12.190;2024-03-25T06:57:20;5.10;99.90
24522;DHT22;12680;57.804;12.190;2024-03-25T06:59:52;5.10;99.90
24522;DHT22;12680;57.804;12.190;2024-03-25T07:02:18;7.10;99.90
24522;DHT22;12680;57.804;12.190;2024-03-25T07:04:58;5.10;99.90
24522;DHT22;12680;57.804;12.190;2024-03-25T07:07:37;7.40;99.90
24522;DHT22;12680;57.804;12.190;2024-03-25T07:10:09;5.10;99.90
24522;DHT22;12680;57.804;12.190;2024-03-25T07:12:35;5.10;99.90
24522;DHT22;12680;57.804;12.190;2024-03-25T07:15:07;5.10;99.90
24522;DHT22;12680;57.804;12.190;2024-03-25T07:17:33;5.20;99.90
24522;DHT22;12680;57.804;12.190;2024-03-25T07:19:59;5.20;99.90
24522;DHT22;12680;57.804;12.190;2024-03-25T07:22:31;5.20;99.90
24522;DHT22;12680;57.804;12.190;2024-03-25T07:24:57;5.20;99.90
24522;DHT22;12680;57.804;12.190;2024-03-25T07:27:29;5.20;99.90
24522;DHT22;12680;57.804;12.190;2024-03-25T07:29:55;7.60;99.90
24522;DHT22;12680;57.804;12.190;2024-03-25T07:32:34;5.40;99.90
24522;DHT22;12680;57.804;12.190;2024-03-25T07:35:00;5.60;99.90
24522;DHT22;12680;57.804;12.190;2024-03-25T07:37:26;5.70;99.90
24522;DHT22;12680;57.804;12.190;2024-03-25T07:39:59;7.20;99.90
24522;DHT22;12680;57.804;12.190;2024-03-25T07:42:25;5.80;99.90
24522;DHT22;12680;57.804;12.190;2024-03-25T07:44:57;5.80;99.90
24522;DHT22;12680;57.804;12.190;2024-03-25T07:47:23;5.90;99.90
24522;DHT22;12680;57.804;12.190;2024-03-25T07:49:48;7.70;99.90
24522;DHT22;12680;57.804;12.190;2024-03-25T07:52:21;6.10;99.90
24522;DHT22;12680;57.804;12.190;2024-03-25T07:54:47;6.20;99.90
24522;DHT22;12680;57.804;12.190;2024-03-25T07:57:13;6.30;99.90
24522;DHT22;12680;57.804;12.190;2024-03-25T07:59:45;6.40;99.90
24522;DHT22;12680;57.804;12.190;2024-03-25T08:02:11;6.40;99.90
24522;DHT22;12680;57.804;12.190;2024-03-25T08:04:44;6.40;99.90
24522;DHT22;12680;57.804;12.190;2024-03-25T08:07:10;6.40;99.90
24522;DHT22;12680;57.804;12.190;2024-03-25T08:09:35;6.40;99.90
24522;DHT22;12680;57.804;12.190;2024-03-25T08:12:08;6.50;99.90
24522;DHT22;12680;57.804;12.190;2024-03-25T08:14:34;6.50;99.90
24522;DHT22;12680;57.804;12.190;2024-03-25T08:17:06;6.40;99.90
24522;DHT22;12680;57.804;12.190;2024-03-25T08:19:32;6.50;99.90
24522;DHT22;12680;57.804;12.190;2024-03-25T08:22:04;6.50;99.90
24522;DHT22;12680;57.804;12.190;2024-03-25T08:24:30;6.50;99.90
24522;DHT22;12680;57.804;12.190;2024-03-25T08:27:02;6.50;99.90
24522;DHT22;12680;57.804;12.190;2024-03-25T08:29:28;6.50;99.90
24522;DHT22;12680;57.804;12.190;2024-03-25T08:31:54;6.40;99.90
24522;DHT22;12680;57.804;12.190;2024-03-25T08:34:26;6.50;99.90
24522;DHT22;12680;57.804;12.190;2024-03-25T08:36:58;6.60;99.90
24522;DHT22;12680;57.804;12.190;2024-03-25T08:39:30;6.70;99.90
24522;DHT22;12680;57.804;12.190;2024-03-25T08:41:56;6.70;99.90
24522;DHT22;12680;57.804;12.190;2024-03-25T08:44:21;6.80;99.90
24522;DHT22;12680;57.804;12.190;2024-03-25T08:46:54;6.90;99.90
24522;DHT22;12680;57.804;12.190;2024-03-25T08:49:26;6.90;99.90
24522;DHT22;12680;57.804;12.190;2024-03-25T08:51:52;9.30;99.90
24522;DHT22;12680;57.804;12.190;2024-03-25T08:54:31;7.00;99.90
24522;DHT22;12680;57.804;12.190;2024-03-25T08:56:57;7.10;99.90
24522;DHT22;12680;57.804;12.190;2024-03-25T08:59:23;7.20;99.90
24522;DHT22;12680;57.804;12.190;2024-03-25T09:01:55;8.60;99.90
24522;DHT22;12680;57.804;12.190;2024-03-25T09:04:21;7.30;99.90
24522;DHT22;12680;57.804;12.190;2024-03-25T09:06:53;7.40;99.90
24522;DHT22;12680;57.804;12.190;2024-03-25T09:09:19;7.60;99.90
24522;DHT22;12680;57.804;12.190;2024-03-25T09:12:10;7.90;99.90
24522;DHT22;12680;57.804;12.190;2024-03-25T09:14:36;7.70;99.90
24522;DHT22;12680;57.804;12.190;2024-03-25T09:17:04;7.90;99.90
24522;DHT22;12680;57.804;12.190;2024-03-25T09:19:37;7.90;99.90
24522;DHT22;12680;57.804;12.190;2024-03-25T09:22:03;7.90;99.90
24522;DHT22;12680;57.804;12.190;2024-03-25T09:24:35;7.80;99.90
24522;DHT22;12680;57.804;12.190;2024-03-25T09:27:01;7.80;99.90
24522;DHT22;12680;57.804;12.190;2024-03-25T09:29:33;7.60;99.90
24522;DHT22;12680;57.804;12.190;2024-03-25T09:31:59;7.60;99.90
24522;DHT22;12680;57.804;12.190;2024-03-25T09:34:38;7.50;99.90
24522;DHT22;12680;57.804;12.190;2024-03-25T09:37:10;7.60;99.90
24522;DHT22;12680;57.804;12.190;2024-03-25T09:39:42;7.70;99.90
24522;DHT22;12680;57.804;12.190;2024-03-25T09:42:08;7.70;99.90
24522;DHT22;12680;57.804;12.190;2024-03-25T09:44:34;7.70;99.90
24522;DHT22;12680;57.804;12.190;2024-03-25T09:47:06;7.70;99.90
24522;DHT22;12680;57.804;12.190;2024-03-25T09:49:33;7.80;99.90
24522;DHT22;12680;57.804;12.190;2024-03-25T09:52:07;7.80;99.90
24522;DHT22;12680;57.804;12.190;2024-03-25T09:54:35;7.90;99.90
24522;DHT22;12680;57.804;12.190;2024-03-25T09:57:01;7.80;99.90
24522;DHT22;12680;57.804;12.190;2024-03-25T09:59:33;7.80;99.90
24522;DHT22;12680;57.804;12.190;2024-03-25T10:01:59;7.60;99.90
24522;DHT22;12680;57.804;12.190;2024-03-25T10:04:33;7.60;99.90
24522;DHT22;12680;57.804;12.190;2024-03-25T10:06:59;7.80;99.90
24522;DHT22;12680;57.804;12.190;2024-03-25T10:09:31;8.00;99.90
24522;DHT22;12680;57.804;12.190;2024-03-25T10:12:04;8.10;99.90
24522;DHT22;12680;57.804;12.190;2024-03-25T10:14:31;8.20;99.90
24522;DHT22;12680;57.804;12.190;2024-03-25T10:16:57;10.30;99.90
24522;DHT22;12680;57.804;12.190;2024-03-25T10:19:29;10.10;99.90
24522;DHT22;12680;57.804;12.190;2024-03-25T10:22:05;8.70;99.90
24522;DHT22;12680;57.804;12.190;2024-03-25T10:24:45;8.70;99.90
24522;DHT22;12680;57.804;12.190;2024-03-25T10:27:23;8.70;99.90
24522;DHT22;12680;57.804;12.190;2024-03-25T10:29:56;8.80;99.90
24522;DHT22;12680;57.804;12.190;2024-03-25T10:32:22;8.80;99.90
24522;DHT22;12680;57.804;12.190;2024-03-25T10:35:08;7.00;99.90
24522;DHT22;12680;57.804;12.190;2024-03-25T10:37:34;11.60;99.90
24522;DHT22;12680;57.804;12.190;2024-03-25T10:40:01;8.70;99.90
24522;DHT22;12680;57.804;12.190;2024-03-25T10:42:34;8.60;99.90
24522;DHT22;12680;57.804;12.190;2024-03-25T10:45:00;8.60;99.90
24522;DHT22;12680;57.804;12.190;2024-03-25T10:47:33;8.80;99.90
24522;DHT22;12680;57.804;12.190;2024-03-25T10:50:03;8.70;99.90
24522;DHT22;12680;57.804;12.190;2024-03-25T10:52:39;11.40;99.90
24522;DHT22;12680;57.804;12.190;2024-03-25T10:55:06;11.10;99.90
24522;DHT22;12680;57.804;12.190;2024-03-25T10:57:33;9.00;99.90
24522;DHT22;12680;57.804;12.190;2024-03-25T11:00:07;11.10;99.90
24522;DHT22;12680;57.804;12.190;2024-03-25T11:02:33;9.00;99.90
24522;DHT22;12680;57.804;12.190;2024-03-25T11:04:59;9.00;99.90
24522;DHT22;12680;57.804;12.190;2024-03-25T11:07:32;9.10;99.90
24522;DHT22;12680;57.804;12.190;2024-03-25T11:10:06;9.10;99.90
24522;DHT22;12680;57.804;12.190;2024-03-25T11:12:41;9.10;99.90
24522;DHT22;12680;57.804;12.190;2024-03-25T11:15:08;9.20;99.90
24522;DHT22;12680;57.804;12.190;2024-03-25T11:17:35;9.20;99.90
24522;DHT22;12680;57.804;12.190;2024-03-25T11:20:12;9.30;99.90
24522;DHT22;12680;57.804;12.190;2024-03-25T11:22:52;9.40;99.90
24522;DHT22;12680;57.804;12.190;2024-03-25T11:25:24;9.20;99.90
24522;DHT22;12680;57.804;12.190;2024-03-25T11:27:50;9.20;99.90
24522;DHT22;12680;57.804;12.190;2024-03-25T11:30:22;9.20;99.90
24522;DHT22;12680;57.804;12.190;2024-03-25T11:32:53;9.20;99.90
24522;DHT22;12680;57.804;12.190;2024-03-25T11:35:38;9.30;99.90
24522;DHT22;12680;57.804;12.190;2024-03-25T11:38:04;9.40;99.90
24522;DHT22;12680;57.804;12.190;2024-03-25T11:40:30;9.40;99.90
24522;DHT22;12680;57.804;12.190;2024-03-25T11:43:03;9.30;99.90
24522;DHT22;12680;57.804;12.190;2024-03-25T11:45:29;9.30;99.90
24522;DHT22;12680;57.804;12.190;2024-03-25T11:48:03;9.40;99.90
24522;DHT22;12680;57.804;12.190;2024-03-25T11:50:30;9.60;99.90
24522;DHT22;12680;57.804;12.190;2024-03-25T11:52:55;9.60;99.90
24522;DHT22;12680;57.804;12.190;2024-03-25T11:55:28;9.60;99.90
24522;DHT22;12680;57.804;12.190;2024-03-25T11:58:01;9.70;99.90
24522;DHT22;12680;57.804;12.190;2024-03-25T12:00:28;10.20;99.90
24522;DHT22;12680;57.804;12.190;2024-03-25T12:02:54;9.60;99.90
24522;DHT22;12680;57.804;12.190;2024-03-25T12:05:27;9.60;99.90
24522;DHT22;12680;57.804;12.190;2024-03-25T12:07:53;9.40;99.90
24522;DHT22;12680;57.804;12.190;2024-03-25T12:10:26;9.30;99.90
24522;DHT22;12680;57.804;12.190;2024-03-25T12:13:11;11.60;99.90
24522;DHT22;12680;57.804;12.190;2024-03-25T12:15:43;9.80;99.90
24522;DHT22;12680;57.804;12.190;2024-03-25T12:18:09;9.70;99.90
24522;DHT22;12680;57.804;12.190;2024-03-25T12:20:35;11.70;99.90
24522;DHT22;12680;57.804;12.190;2024-03-25T12:23:07;9.70;99.90
24522;DHT22;12680;57.804;12.190;2024-03-25T12:25:33;9.60;99.90
24522;DHT22;12680;57.804;12.190;2024-03-25T12:28:09;9.70;99.90
24522;DHT22;12680;57.804;12.190;2024-03-25T12:30:48;11.60;99.90
24522;DHT22;12680;57.804;12.190;2024-03-25T12:33:28;9.70;99.90
24522;DHT22;12680;57.804;12.190;2024-03-25T12:35:54;9.90;99.90
24522;DHT22;12680;57.804;12.190;2024-03-25T12:38:30;12.40;99.90
24522;DHT22;12680;57.804;12.190;2024-03-25T12:41:08;12.60;99.90
24522;DHT22;12680;57.804;12.190;2024-03-25T12:43:44;10.10;99.90
24522;DHT22;12680;57.804;12.190;2024-03-25T12:46:13;12.00;99.90
24522;DHT22;12680;57.804;12.190;2024-03-25T12:48:39;9.90;99.90
24522;DHT22;12680;57.804;12.190;2024-03-25T12:51:15;9.90;99.90
24522;DHT22;12680;57.804;12.190;2024-03-25T12:53:41;9.80;99.90
24522;DHT22;12680;57.804;12.190;2024-03-25T12:56:13;12.30;99.90
24522;DHT22;12680;57.804;12.190;2024-03-25T12:58:39;9.80;99.90
24522;DHT22;12680;57.804;12.190;2024-03-25T13:01:05;9.70;99.90
24522;DHT22;12680;57.804;12.190;2024-03-25T13:03:37;9.70;99.90
24522;DHT22;12680;57.804;12.190;2024-03-25T13:06:03;9.70;99.90
24522;DHT22;12680;57.804;12.190;2024-03-25T13:08:29;9.70;99.90
24522;DHT22;12680;57.804;12.190;2024-03-25T13:11:01;9.70;99.90
24522;DHT22;12680;57.804;12.190;2024-03-25T13:13:27;9.50;99.90
24522;DHT22;12680;57.804;12.190;2024-03-25T13:15:53;9.50;99.90
24522;DHT22;12680;57.804;12.190;2024-03-25T13:18:25;9.50;99.90
24522;DHT22;12680;57.804;12.190;2024-03-25T13:20:51;10.50;99.90
24522;DHT22;12680;57.804;12.190;2024-03-25T13:23:17;9.60;99.90
24522;DHT22;12680;57.804;12.190;2024-03-25T13:25:49;9.40;99.90
24522;DHT22;12680;57.804;12.190;2024-03-25T13:28:15;10.10;99.90
24522;DHT22;12680;57.804;12.190;2024-03-25T13:30:41;9.40;99.90
24522;DHT22;12680;57.804;12.190;2024-03-25T13:33:13;9.30;99.90
24522;DHT22;12680;57.804;12.190;2024-03-25T13:35:52;11.70;99.90
24522;DHT22;12680;57.804;12.190;2024-03-25T13:38:24;9.30;99.90
24522;DHT22;12680;57.804;12.190;2024-03-25T13:40:50;9.40;99.90
24522;DHT22;12680;57.804;12.190;2024-03-25T13:43:16;9.40;99.90
24522;DHT22;12680;57.804;12.190;2024-03-25T13:45:48;9.40;99.90
24522;DHT22;12680;57.804;12.190;2024-03-25T13:48:21;9.30;99.90
24522;DHT22;12680;57.804;12.190;2024-03-25T13:50:48;9.30;99.90
24522;DHT22;12680;57.804;12.190;2024-03-25T13:53:21;9.20;99.90
24522;DHT22;12680;57.804;12.190;2024-03-25T13:55:53;9.30;99.90
24522;DHT22;12680;57.804;12.190;2024-03-25T13:58:19;9.30;99.90
24522;DHT22;12680;57.804;12.190;2024-03-25T14:00:51;9.40;99.90
24522;DHT22;12680;57.804;12.190;2024-03-25T14:03:17;11.90;99.90
24522;DHT22;12680;57.804;12.190;2024-03-25T14:05:44;10.80;99.90
24522;DHT22;12680;57.804;12.190;2024-03-25T14:08:16;9.30;99.90
24522;DHT22;12680;57.804;12.190;2024-03-25T14:10:43;9.40;99.90
24522;DHT22;12680;57.804;12.190;2024-03-25T14:13:15;9.50;99.90
24522;DHT22;12680;57.804;12.190;2024-03-25T14:15:41;9.60;99.90
24522;DHT22;12680;57.804;12.190;2024-03-25T14:18:07;9.70;99.90
24522;DHT22;12680;57.804;12.190;2024-03-25T14:20:41;9.70;99.90
24522;DHT22;12680;57.804;12.190;2024-03-25T14:23:07;9.80;99.90
24522;DHT22;12680;57.804;12.190;2024-03-25T14:25:33;9.80;99.90
24522;DHT22;12680;57.804;12.190;2024-03-25T14:28:05;12.30;99.90
24522;DHT22;12680;57.804;12.190;2024-03-25T14:30:31;12.10;99.90
24522;DHT22;12680;57.804;12.190;2024-03-25T14:33:03;9.90;99.90
24522;DHT22;12680;57.804;12.190;2024-03-25T14:35:35;10.00;99.90
24522;DHT22;12680;57.804;12.190;2024-03-25T14:38:01;10.20;99.90
24522;DHT22;12680;57.804;12.190;2024-03-25T14:40:38;11.70;99.90
24522;DHT22;12680;57.804;12.190;2024-03-25T14:43:04;10.40;99.90
24522;DHT22;12680;57.804;12.190;2024-03-25T14:45:30;10.40;99.90
24522;DHT22;12680;57.804;12.190;2024-03-25T14:48:03;10.30;99.90
24522;DHT22;12680;57.804;12.190;2024-03-25T14:50:28;10.30;99.90
24522;DHT22;12680;57.804;12.190;2024-03-25T14:52:54;10.80;99.90
24522;DHT22;12680;57.804;12.190;2024-03-25T14:55:26;10.10;99.90
24522;DHT22;12680;57.804;12.190;2024-03-25T14:57:58;9.90;99.90
24522;DHT22;12680;57.804;12.190;2024-03-25T15:00:24;9.70;99.90
24522;DHT22;12680;57.804;12.190;2024-03-25T15:02:56;9.60;99.90
24522;DHT22;12680;57.804;12.190;2024-03-25T15:05:28;9.60;99.90
24522;DHT22;12680;57.804;12.190;2024-03-25T15:07:54;10.90;99.90
24522;DHT22;12680;57.804;12.190;2024-03-25T15:10:27;9.50;99.90
24522;DHT22;12680;57.804;12.190;2024-03-25T15:12:53;9.50;99.90
24522;DHT22;12680;57.804;12.190;2024-03-25T15:15:27;9.50;99.90
24522;DHT22;12680;57.804;12.190;2024-03-25T15:17:53;9.50;99.90
24522;DHT22;12680;57.804;12.190;2024-03-25T15:20:19;9.60;99.90
24522;DHT22;12680;57.804;12.190;2024-03-25T15:22:51;10.10;99.90
24522;DHT22;12680;57.804;12.190;2024-03-25T15:25:17;11.40;99.90
24522;DHT22;12680;57.804;12.190;2024-03-25T15:27:49;9.70;99.90
24522;DHT22;12680;57.804;12.190;2024-03-25T15:30:15;9.70;99.90
24522;DHT22;12680;57.804;12.190;2024-03-25T15:32:41;9.70;99.90
24522;DHT22;12680;57.804;12.190;2024-03-25T15:35:13;11.10;99.90
24522;DHT22;12680;57.804;12.190;2024-03-25T15:37:39;9.60;99.90
24522;DHT22;12680;57.804;12.190;2024-03-25T15:40:05;9.50;99.90
24522;DHT22;12680;57.804;12.190;2024-03-25T15:42:38;9.30;99.90
24522;DHT22;12680;57.804;12.190;2024-03-25T15:45:04;9.30;99.90
24522;DHT22;12680;57.804;12.190;2024-03-25T15:47:30;9.20;99.90
24522;DHT22;12680;57.804;12.190;2024-03-25T15:50:02;9.10;99.90